Aviation Digital Data Service (ADDS)

Output produced by METARs form (2136 UTC 15 October 2018)
found at http://aviationweather.gov/metar/data/
 
KBPT 152117Z 36013KT 10SM BKN009 OVC029 23/21 A2998 RMK AO2 LTG DSNT W T02330206
KBPT 152053Z 01011G17KT 9SM FEW006 OVC020 23/21 A2997 RMK AO2 LTG DSNT N AND NE RAE33 SLP149 P0001 60001 T02330206 55001
KBPT 151728Z 1518/1618 35013G20KT P6SM -SHRA OVC015 
     TEMPO 1518/1521 5SM -RA BR OVC005 
     FM160100 36015G22KT P6SM VCSH OVC007 
     FM160600 02012KT P6SM OVC007 
     FM160900 02010KT P6SM VCSH OVC007 
     FM161200 03010KT P6SM VCSH OVC010